Time;durP1;ratioP1;P1;durP2;ratioP2;P2;SDS_P1;SDS_P2;PMS_P1;PMS_P2;Temp;Humidity;BMP_temperature;BMP_pressure;BME280_temperature;BME280_humidity;BME280_pressure;Samples;Min_cycle;Max_cycle;Signal;HPM_P1;HPM_P2
2022/10/04 00:01:31;;;;;;;0.20;0.20;;;18.30;60.10;;;;;;5063924;28;20063;-65
2022/10/04 00:04:07;;;;;;;0.20;0.20;;;18.30;60.10;;;;;;5067253;28;20040;-65
2022/10/04 00:06:34;;;;;;;0.20;0.20;;;18.30;60.70;;;;;;5067261;28;20055;-65
2022/10/04 00:09:14;;;;;;;0.82;0.30;;;18.30;60.10;;;;;;5067151;28;20021;-65
2022/10/04 00:11:44;;;;;;;0.45;0.20;;;18.20;60.10;;;;;;5049375;28;20250;-64
2022/10/04 00:14:27;;;;;;;0.40;0.30;;;18.20;60.10;;;;;;5067071;28;20096;-64
2022/10/04 00:16:53;;;;;;;0.30;0.30;;;18.20;60.10;;;;;;5067041;28;20314;-64
2022/10/04 00:19:19;;;;;;;0.30;0.30;;;18.20;60.10;;;;;;5066954;28;20309;-65
2022/10/04 00:21:56;;;;;;;0.50;0.22;;;18.20;60.10;;;;;;5066927;28;20024;-65
2022/10/04 00:24:26;;;;;;;0.20;0.20;;;18.20;60.10;;;;;;5066912;28;20037;-65
2022/10/04 00:26:52;;;;;;;0.32;0.30;;;18.20;60.00;;;;;;5066775;28;20013;-64
2022/10/04 00:29:41;;;;;;;0.20;0.20;;;18.20;60.10;;;;;;5066815;28;20025;-64
2022/10/04 00:32:09;;;;;;;0.20;0.20;;;18.20;60.10;;;;;;5066725;28;20182;-65
2022/10/04 00:34:35;;;;;;;0.30;0.20;;;18.20;60.00;;;;;;5066854;28;20089;-64
2022/10/04 00:37:11;;;;;;;0.20;0.20;;;18.20;60.00;;;;;;5066646;28;20333;-65
2022/10/04 00:39:40;;;;;;;0.20;0.20;;;18.20;60.10;;;;;;5066692;28;20355;-65
2022/10/04 00:42:21;;;;;;;0.30;0.30;;;18.20;60.10;;;;;;5066573;28;20062;-64
2022/10/04 00:44:55;;;;;;;0.13;0.13;;;18.20;60.10;;;;;;5066519;28;20273;-64
2022/10/04 00:47:25;;;;;;;0.10;0.10;;;18.20;60.10;;;;;;5066504;28;20025;-64
2022/10/04 00:49:57;;;;;;;0.30;0.30;;;18.20;60.00;;;;;;5066389;28;20020;-65
2022/10/04 00:52:30;;;;;;;0.30;0.30;;;18.20;60.00;;;;;;5066414;28;20013;-65
2022/10/04 00:55:05;;;;;;;0.20;0.20;;;18.20;60.00;;;;;;5066266;28;20025;-64
2022/10/04 00:57:42;;;;;;;0.70;0.25;;;18.20;60.10;;;;;;5066272;28;20036;-64
2022/10/04 01:00:13;;;;;;;0.73;0.15;;;18.20;60.00;;;;;;5066260;28;20028;-64
2022/10/04 01:02:45;;;;;;;0.50;0.30;;;18.20;60.10;;;;;;5066167;28;20020;-65
2022/10/04 01:05:22;;;;;;;0.43;0.40;;;18.20;60.10;;;;;;5066120;28;20021;-64
2022/10/04 01:07:54;;;;;;;0.40;0.38;;;18.20;60.10;;;;;;5066131;28;20300;-64
2022/10/04 01:10:33;;;;;;;0.40;0.20;;;18.20;60.10;;;;;;5066079;28;20088;-64
2022/10/04 01:13:13;;;;;;;0.50;0.50;;;18.20;60.10;;;;;;5065710;28;20213;-63
2022/10/04 01:15:54;;;;;;;0.28;0.28;;;18.20;60.10;;;;;;5066104;28;20021;-63
2022/10/04 01:18:19;;;;;;;0.15;0.15;;;18.20;60.00;;;;;;5066177;28;20297;-65
2022/10/04 01:21:07;;;;;;;0.32;0.32;;;18.20;60.10;;;;;;5065814;28;20055;-64
2022/10/04 01:23:46;;;;;;;0.28;0.20;;;18.20;60.10;;;;;;5065667;28;20041;-64
2022/10/04 01:26:33;;;;;;;0.47;0.30;;;18.20;60.10;;;;;;5065771;28;20027;-64
2022/10/04 01:29:23;;;;;;;0.80;0.38;;;18.20;60.10;;;;;;5065974;28;20021;-63
2022/10/04 01:31:53;;;;;;;0.40;0.30;;;18.20;60.10;;;;;;5065600;28;20135;-64
2022/10/04 01:34:21;;;;;;;0.43;0.30;;;18.10;60.10;;;;;;5065774;28;20067;-64
2022/10/04 01:36:48;;;;;;;0.43;0.30;;;18.20;60.10;;;;;;5065543;28;20316;-65
2022/10/04 01:39:15;;;;;;;0.30;0.30;;;18.10;60.00;;;;;;5065466;28;20021;-64
2022/10/04 01:41:52;;;;;;;0.20;0.20;;;18.10;60.10;;;;;;5065452;28;20023;-63
2022/10/04 01:44:40;;;;;;;0.20;0.20;;;18.10;60.10;;;;;;5065395;28;20237;-63
2022/10/04 01:47:13;;;;;;;0.65;0.35;;;18.10;60.10;;;;;;5065385;28;20328;-63
2022/10/04 01:49:42;;;;;;;0.20;0.20;;;18.10;60.10;;;;;;5065568;28;20080;-64
2022/10/04 01:52:42;;;;;;;0.30;0.30;;;18.10;60.10;;;;;;5065501;28;20020;-64
2022/10/04 01:55:15;;;;;;;0.28;0.28;;;18.10;60.10;;;;;;5033211;28;20070;-64
2022/10/04 01:57:48;;;;;;;0.32;0.22;;;18.10;60.10;;;;;;5065174;28;20120;-63
2022/10/04 02:00:15;;;;;;;0.32;0.30;;;18.10;60.10;;;;;;5065084;28;20055;-63
2022/10/04 02:02:54;;;;;;;0.68;0.30;;;18.10;60.10;;;;;;5064966;28;20044;-63
2022/10/04 02:05:41;;;;;;;0.25;0.25;;;18.10;60.10;;;;;;5065053;28;20017;-64
2022/10/04 02:08:11;;;;;;;0.50;0.20;;;18.10;60.00;;;;;;5064961;28;20032;-64
2022/10/04 02:10:38;;;;;;;0.68;0.30;;;18.10;60.10;;;;;;5064936;28;20263;-64
2022/10/04 02:13:10;;;;;;;0.30;0.30;;;18.10;60.10;;;;;;5065072;28;20017;-63
2022/10/04 02:15:39;;;;;;;0.30;0.30;;;18.10;60.00;;;;;;5064757;28;20074;-64
2022/10/04 02:18:14;;;;;;;0.65;0.30;;;18.10;60.10;;;;;;5064748;28;20367;-65
2022/10/04 02:20:41;;;;;;;0.22;0.20;;;18.10;60.00;;;;;;5064669;28;20017;-66
2022/10/04 02:23:09;;;;;;;0.35;0.20;;;18.10;60.00;;;;;;5064440;28;20037;-64
2022/10/04 02:25:36;;;;;;;0.30;0.30;;;18.10;60.00;;;;;;5063931;28;20032;-65
2022/10/04 02:28:02;;;;;;;0.77;0.30;;;18.10;60.10;;;;;;5064545;28;20036;-64
2022/10/04 02:30:34;;;;;;;0.10;0.10;;;18.10;60.10;;;;;;5064522;28;20025;-64
2022/10/04 02:33:00;;;;;;;0.30;0.20;;;18.10;60.10;;;;;;5064547;28;20017;-64
2022/10/04 02:35:42;;;;;;;0.20;0.20;;;18.10;60.10;;;;;;5064387;28;20029;-65
2022/10/04 02:38:21;;;;;;;0.40;0.40;;;18.10;60.10;;;;;;5064455;28;20071;-65
2022/10/04 02:40:56;;;;;;;0.30;0.30;;;18.10;60.10;;;;;;5064358;28;20178;-64
2022/10/04 02:43:59;;;;;;;0.45;0.25;;;18.10;60.10;;;;;;5064298;28;20013;-65
2022/10/04 02:46:31;;;;;;;1.05;0.25;;;18.10;60.10;;;;;;5064198;28;20016;-64
2022/10/04 02:49:19;;;;;;;0.47;0.22;;;18.10;60.10;;;;;;5064181;28;20028;-65
2022/10/04 02:52:08;;;;;;;0.20;0.20;;;18.10;60.10;;;;;;5063402;28;20043;-63
2022/10/04 02:54:55;;;;;;;0.28;0.22;;;18.10;60.10;;;;;;5064035;28;20021;-65
2022/10/04 02:57:22;;;;;;;0.50;0.47;;;18.10;60.10;;;;;;5064053;28;20021;-64
2022/10/04 02:59:49;;;;;;;0.38;0.38;;;18.10;60.10;;;;;;5064003;28;20034;-64
2022/10/04 03:02:29;;;;;;;0.50;0.50;;;18.10;60.70;;;;;;5063912;28;20021;-64
2022/10/04 03:05:02;;;;;;;0.20;0.20;;;18.00;60.00;;;;;;5063945;28;20020;-64
2022/10/04 03:07:31;;;;;;;0.22;0.22;;;18.10;60.10;;;;;;5063870;28;20036;-63
2022/10/04 03:09:58;;;;;;;;;;;18.00;60.10;;;;;;5064195;28;20062;-65
2022/10/04 03:12:24;;;;;;;0.30;0.20;;;18.00;60.00;;;;;;5063786;28;19900;-64
2022/10/04 03:14:53;;;;;;;0.30;0.30;;;18.10;60.10;;;;;;5063693;28;20321;-66
2022/10/04 03:17:19;;;;;;;;;;;18.00;60.00;;;;;;5064106;28;20017;-66
2022/10/04 03:19:48;;;;;;;0.20;0.20;;;18.00;60.00;;;;;;5063659;28;20128;-64
2022/10/04 03:22:13;;;;;;;0.22;0.20;;;18.10;60.00;;;;;;5063474;28;20037;-64
2022/10/04 03:24:49;;;;;;;0.70;0.50;;;18.00;59.90;;;;;;5063613;28;20040;-64
2022/10/04 03:27:19;;;;;;;0.20;0.20;;;18.00;60.00;;;;;;5063590;28;20021;-65
2022/10/04 03:29:45;;;;;;;0.77;0.30;;;18.00;60.00;;;;;;5063563;28;20025;-64
2022/10/04 03:32:16;;;;;;;0.90;0.68;;;18.00;60.00;;;;;;5063454;28;20082;-64
2022/10/04 03:34:51;;;;;;;0.95;0.22;;;18.00;60.00;;;;;;5063428;28;20036;-65
2022/10/04 03:37:19;;;;;;;0.10;0.10;;;18.00;60.00;;;;;;5063427;28;20020;-63
2022/10/04 03:39:48;;;;;;;0.20;0.20;;;18.00;60.10;;;;;;5063677;28;20021;-63
2022/10/04 03:42:21;;;;;;;0.25;0.25;;;18.00;60.00;;;;;;5063360;28;20020;-64
2022/10/04 03:44:50;;;;;;;0.20;0.20;;;18.00;60.00;;;;;;5063356;28;20024;-63
2022/10/04 03:47:24;;;;;;;0.57;0.30;;;18.00;60.00;;;;;;5063364;28;20060;-64
2022/10/04 03:49:51;;;;;;;0.60;0.40;;;18.00;60.00;;;;;;5063332;28;20032;-64
2022/10/04 03:52:31;;;;;;;0.30;0.30;;;18.00;60.00;;;;;;5063252;28;20013;-64
2022/10/04 03:55:00;;;;;;;0.20;0.20;;;18.00;60.00;;;;;;5063196;28;20021;-64
2022/10/04 03:57:27;;;;;;;0.32;0.32;;;18.00;60.00;;;;;;5063185;28;20044;-64
2022/10/04 03:59:53;;;;;;;0.65;0.30;;;18.00;60.00;;;;;;5063228;28;20276;-64
2022/10/04 04:02:25;;;;;;;0.45;0.45;;;18.00;60.00;;;;;;5063174;28;20083;-64
2022/10/04 04:05:09;;;;;;;0.40;0.17;;;17.90;60.00;;;;;;5063139;28;20028;-63
2022/10/04 04:08:11;;;;;;;0.30;0.30;;;18.00;60.10;;;;;;5063169;28;20021;-62
2022/10/04 04:10:41;;;;;;;0.20;0.20;;;18.00;60.20;;;;;;4996267;28;20029;-64
2022/10/04 04:13:22;;;;;;;0.30;0.30;;;17.90;60.00;;;;;;5063106;28;20028;-64
2022/10/04 04:15:48;;;;;;;0.30;0.20;;;18.00;60.00;;;;;;5063060;28;20305;-63
2022/10/04 04:18:23;;;;;;;0.20;0.20;;;18.00;60.10;;;;;;5063064;28;20059;-64
2022/10/04 04:20:52;;;;;;;0.73;0.40;;;18.00;60.10;;;;;;5062993;28;20063;-63
2022/10/04 04:23:53;;;;;;;0.30;0.30;;;18.00;60.10;;;;;;5062852;28;20044;-64
2022/10/04 04:26:46;;;;;;;0.30;0.20;;;17.90;60.00;;;;;;5058929;28;20029;-63
2022/10/04 04:29:35;;;;;;;0.30;0.30;;;18.00;60.10;;;;;;5059904;28;20100;-64
2022/10/04 04:32:11;;;;;;;0.40;0.40;;;17.90;60.00;;;;;;5062913;28;20017;-64
2022/10/04 04:35:20;;;;;;;0.30;0.30;;;17.90;60.00;;;;;;5062853;28;20185;-64
2022/10/04 04:38:15;;;;;;;0.20;0.20;;;17.90;60.00;;;;;;4982145;28;20014;-64
2022/10/04 04:40:41;;;;;;;0.10;0.10;;;17.90;60.00;;;;;;5062876;28;20013;-64
2022/10/04 04:43:18;;;;;;;0.40;0.38;;;17.90;60.00;;;;;;5062809;28;20028;-63
2022/10/04 04:45:47;;;;;;;0.20;0.20;;;17.90;60.10;;;;;;5062798;28;20020;-64
2022/10/04 04:48:13;;;;;;;;;;;17.90;60.10;;;;;;5064903;28;20351;-63
2022/10/04 04:50:40;;;;;;;0.30;0.30;;;17.90;60.10;;;;;;5066399;28;19901;-63
2022/10/04 04:53:21;;;;;;;0.30;0.30;;;17.90;60.00;;;;;;5066378;28;20331;-64
2022/10/04 04:55:52;;;;;;;0.20;0.20;;;17.90;60.00;;;;;;5066257;28;20024;-63
2022/10/04 04:58:21;;;;;;;0.17;0.17;;;17.90;60.00;;;;;;5066580;28;20040;-65
2022/10/04 05:01:24;;;;;;;0.40;0.30;;;17.90;60.00;;;;;;5066221;28;20028;-64
2022/10/04 05:04:07;;;;;;;0.20;0.20;;;17.90;60.00;;;;;;5066184;28;20272;-64
2022/10/04 05:06:35;;;;;;;0.30;0.30;;;17.90;60.00;;;;;;5066099;28;20021;-64
2022/10/04 05:09:02;;;;;;;0.20;0.20;;;17.90;60.10;;;;;;5066094;28;20085;-63
2022/10/04 05:11:31;;;;;;;0.68;0.40;;;17.90;60.00;;;;;;5066041;28;20213;-64
2022/10/04 05:14:11;;;;;;;0.50;0.38;;;17.90;60.00;;;;;;5065973;28;20045;-64
2022/10/04 05:16:37;;;;;;;0.57;0.20;;;17.90;60.00;;;;;;5065892;28;20029;-64
2022/10/04 05:19:07;;;;;;;0.50;0.10;;;17.90;60.10;;;;;;5065885;28;20013;-63
2022/10/04 05:21:35;;;;;;;0.35;0.20;;;17.90;60.10;;;;;;5065881;28;20051;-64
2022/10/04 05:24:22;;;;;;;0.25;0.17;;;17.90;60.10;;;;;;5065644;28;20344;-63
2022/10/04 05:26:57;;;;;;;0.20;0.20;;;17.90;60.10;;;;;;5065756;28;20346;-65
2022/10/04 05:29:27;;;;;;;0.43;0.40;;;17.90;60.10;;;;;;5047882;28;20225;-64
2022/10/04 05:32:30;;;;;;;0.30;0.20;;;17.90;60.10;;;;;;5065643;28;20021;-64
2022/10/04 05:34:58;;;;;;;0.15;0.15;;;17.90;60.10;;;;;;5053353;28;20079;-65
2022/10/04 05:37:45;;;;;;;0.20;0.20;;;17.90;60.00;;;;;;5065549;28;20013;-64
2022/10/04 05:40:13;;;;;;;0.30;0.30;;;17.90;60.00;;;;;;5065470;28;20013;-64
2022/10/04 05:42:44;;;;;;;0.10;0.10;;;17.90;60.00;;;;;;5065462;28;20013;-64
2022/10/04 05:45:28;;;;;;;0.20;0.20;;;17.90;60.10;;;;;;5065245;28;20087;-66
2022/10/04 05:47:56;;;;;;;0.30;0.25;;;17.90;60.00;;;;;;5065377;28;20032;-65
2022/10/04 05:50:40;;;;;;;0.50;0.40;;;17.90;60.10;;;;;;5065317;28;20093;-64
2022/10/04 05:53:31;;;;;;;0.30;0.30;;;17.90;60.10;;;;;;5065313;28;20028;-65
2022/10/04 05:56:11;;;;;;;0.40;0.30;;;17.90;60.10;;;;;;5065156;28;20055;-65
2022/10/04 05:58:56;;;;;;;0.15;0.15;;;17.80;60.00;;;;;;5064690;28;20066;-63
2022/10/04 06:01:51;;;;;;;0.20;0.15;;;17.90;60.10;;;;;;5064944;28;20013;-64
2022/10/04 06:04:31;;;;;;;0.20;0.20;;;17.90;60.00;;;;;;5065050;28;20036;-63
2022/10/04 06:07:12;;;;;;;0.20;0.20;;;17.90;60.10;;;;;;5065022;28;20027;-64
2022/10/04 06:09:53;;;;;;;0.28;0.20;;;17.90;60.10;;;;;;5064997;28;20020;-65
2022/10/04 06:12:34;;;;;;;0.20;0.20;;;17.90;60.00;;;;;;5064900;28;20036;-64
2022/10/04 06:15:30;;;;;;;0.70;0.20;;;17.90;60.00;;;;;;5064840;28;20021;-65
2022/10/04 06:18:20;;;;;;;0.13;0.13;;;17.90;60.00;;;;;;5064831;28;20362;-65
2022/10/04 06:20:53;;;;;;;1.10;0.32;;;17.90;60.00;;;;;;5064792;28;20047;-64
2022/10/04 06:23:20;;;;;;;0.13;0.13;;;17.90;60.00;;;;;;5064531;28;20037;-64
2022/10/04 06:25:55;;;;;;;0.63;0.40;;;17.90;60.00;;;;;;5064620;28;20017;-64
2022/10/04 06:28:31;;;;;;;0.45;0.40;;;17.90;60.00;;;;;;5064571;28;20024;-63
2022/10/04 06:31:07;;;;;;;0.20;0.20;;;17.90;60.00;;;;;;5064540;28;20025;-64
2022/10/04 06:33:33;;;;;;;0.40;0.40;;;17.90;59.90;;;;;;5064488;28;20205;-64
2022/10/04 06:36:08;;;;;;;0.25;0.20;;;17.90;60.00;;;;;;5064375;28;20066;-64
2022/10/04 06:38:45;;;;;;;0.20;0.20;;;17.90;60.00;;;;;;5064377;28;20021;-64
2022/10/04 06:41:40;;;;;;;0.30;0.30;;;17.90;60.00;;;;;;5064324;28;20052;-64
2022/10/04 06:44:41;;;;;;;0.25;0.25;;;17.90;60.00;;;;;;5029180;28;20036;-63
2022/10/04 06:47:10;;;;;;;0.20;0.20;;;17.90;60.00;;;;;;5050241;28;20037;-63
2022/10/04 06:49:58;;;;;;;1.17;0.25;;;17.90;60.00;;;;;;5064211;28;20066;-64
2022/10/04 06:52:44;;;;;;;0.40;0.30;;;17.90;59.90;;;;;;5064180;28;20265;-64
2022/10/04 06:55:16;;;;;;;0.28;0.20;;;17.90;59.90;;;;;;5063700;28;20036;-64
2022/10/04 06:58:07;;;;;;;0.25;0.25;;;17.90;59.90;;;;;;5064007;28;20021;-65
2022/10/04 07:00:58;;;;;;;0.22;0.20;;;17.90;59.90;;;;;;5064031;28;20013;-64
2022/10/04 07:03:37;;;;;;;0.22;0.22;;;17.90;59.90;;;;;;5049814;28;20060;-62
2022/10/04 07:06:06;;;;;;;0.32;0.32;;;17.90;59.90;;;;;;5063916;28;20358;-63
2022/10/04 07:08:54;;;;;;;0.95;0.20;;;17.90;59.90;;;;;;5063838;28;20269;-63
2022/10/04 07:11:35;;;;;;;0.20;0.20;;;17.90;59.90;;;;;;5063544;28;20088;-62
2022/10/04 07:14:16;;;;;;;0.30;0.10;;;17.90;59.90;;;;;;5063791;28;20083;-63
2022/10/04 07:16:45;;;;;;;0.20;0.20;;;17.90;59.90;;;;;;5063678;28;20021;-64
2022/10/04 07:19:20;;;;;;;0.20;0.20;;;17.90;59.80;;;;;;5063686;28;20055;-64
2022/10/04 07:22:09;;;;;;;0.63;0.30;;;17.90;59.80;;;;;;5045917;28;20031;-64
2022/10/04 07:25:02;;;;;;;0.20;0.20;;;17.90;59.70;;;;;;5063630;28;20028;-64
2022/10/04 07:27:48;;;;;;;0.40;0.35;;;18.00;59.70;;;;;;5063591;28;20063;-65
2022/10/04 07:30:17;;;;;;;0.20;0.20;;;18.00;59.70;;;;;;5063566;28;20024;-63
2022/10/04 07:32:46;;;;;;;0.22;0.22;;;18.10;59.60;;;;;;5063507;28;20021;-64
2022/10/04 07:35:21;;;;;;;;;;;18.00;59.60;;;;;;5063833;28;20017;-63
2022/10/04 07:38:05;;;;;;;0.30;0.30;;;18.00;59.60;;;;;;5063443;28;19901;-63
2022/10/04 07:40:38;;;;;;;0.30;0.30;;;18.10;59.60;;;;;;5063421;28;20076;-64
2022/10/04 07:43:09;;;;;;;0.47;0.40;;;18.10;59.50;;;;;;5063383;28;20040;-63
2022/10/04 07:45:38;;;;;;;0.35;0.35;;;18.10;59.50;;;;;;5063381;28;20264;-65
2022/10/04 07:48:18;;;;;;;0.30;0.30;;;18.10;59.60;;;;;;5045531;28;20020;-64
2022/10/04 07:51:08;;;;;;;0.20;0.20;;;18.00;59.70;;;;;;5063379;28;20020;-64
2022/10/04 07:53:41;;;;;;;0.70;0.50;;;18.10;59.80;;;;;;5063311;28;20024;-63
2022/10/04 07:56:14;;;;;;;0.38;0.32;;;18.00;59.80;;;;;;5063160;28;20063;-62
2022/10/04 07:59:17;;;;;;;0.40;0.40;;;18.00;59.80;;;;;;5063266;28;20305;-64
2022/10/04 08:01:49;;;;;;;0.32;0.30;;;18.00;59.70;;;;;;5063221;28;20021;-63
2022/10/04 08:04:17;;;;;;;0.47;0.25;;;18.00;59.90;;;;;;5063206;28;20058;-64
2022/10/04 08:06:57;;;;;;;0.00;0.00;;;18.00;59.90;;;;;;5063236;28;20090;-65
2022/10/04 08:09:36;;;;;;;0.73;0.17;;;18.00;59.80;;;;;;5045459;28;20096;-64
2022/10/04 08:12:24;;;;;;;0.55;0.40;;;18.10;59.70;;;;;;5063119;28;20025;-65
2022/10/04 08:15:12;;;;;;;0.57;0.20;;;18.00;59.80;;;;;;5063079;28;20212;-63
2022/10/04 08:17:49;;;;;;;0.30;0.20;;;18.10;60.00;;;;;;5063110;28;20534;-65
2022/10/04 08:20:32;;;;;;;0.30;0.30;;;18.00;59.80;;;;;;5063074;28;20367;-65
2022/10/04 08:23:15;;;;;;;0.20;0.20;;;18.00;59.90;;;;;;5064344;28;20055;-64
2022/10/04 08:25:50;;;;;;;0.43;0.35;;;18.00;59.80;;;;;;5066927;28;20028;-64
2022/10/04 08:31:50;;;;;;;0.10;0.10;;;18.10;59.70;;;;;;5066861;28;20090;-63
2022/10/04 08:34:43;;;;;;;0.20;0.20;;;18.10;59.70;;;;;;5053149;28;20033;-63
2022/10/04 08:37:52;;;;;;;0.20;0.20;;;18.10;59.70;;;;;;5014657;28;20036;-64
2022/10/04 08:40:52;;;;;;;0.45;0.45;;;18.10;59.80;;;;;;5029509;28;20412;-64
2022/10/04 08:43:36;;;;;;;0.52;0.30;;;18.10;59.70;;;;;;5066255;28;20025;-64
2022/10/04 08:46:39;;;;;;;0.20;0.20;;;18.10;59.60;;;;;;5066221;28;20016;-64
2022/10/04 08:49:16;;;;;;;0.17;0.17;;;18.10;59.60;;;;;;5066129;28;20074;-63
2022/10/04 08:51:50;;;;;;;0.35;0.35;;;18.10;59.70;;;;;;5066092;28;20072;-63
2022/10/04 08:54:40;;;;;;;0.43;0.25;;;18.10;59.80;;;;;;5066009;28;20047;-64
2022/10/04 08:57:12;;;;;;;0.30;0.30;;;18.10;59.70;;;;;;5066032;28;20313;-64
2022/10/04 08:59:56;;;;;;;0.38;0.20;;;18.10;59.70;;;;;;5065912;28;20063;-64
2022/10/04 09:02:34;;;;;;;0.82;0.30;;;18.10;59.70;;;;;;5065922;28;20028;-64
2022/10/04 09:05:12;;;;;;;1.35;0.40;;;18.10;59.70;;;;;;5065909;28;20290;-64
2022/10/04 09:07:50;;;;;;;0.47;0.40;;;18.10;59.70;;;;;;5065835;28;20016;-64
2022/10/04 09:10:39;;;;;;;0.55;0.30;;;18.10;59.70;;;;;;5065786;28;20024;-64
2022/10/04 09:13:25;;;;;;;0.30;0.30;;;18.10;59.80;;;;;;5065692;28;20017;-62
2022/10/04 09:16:01;;;;;;;0.73;0.30;;;18.10;59.80;;;;;;5065054;28;20033;-63
2022/10/04 09:19:07;;;;;;;0.60;0.40;;;18.10;59.80;;;;;;5065585;28;20020;-64
2022/10/04 09:21:49;;;;;;;0.40;0.40;;;18.10;59.70;;;;;;5065538;28;20017;-64
2022/10/04 09:24:33;;;;;;;0.40;0.30;;;18.10;59.80;;;;;;5065264;28;20044;-64
2022/10/04 09:27:05;;;;;;;0.30;0.30;;;18.10;59.90;;;;;;5065449;28;20057;-64
2022/10/04 09:30:05;;;;;;;0.50;0.30;;;18.00;59.90;;;;;;5065350;28;20040;-64
2022/10/04 09:32:36;;;;;;;0.20;0.20;;;18.10;59.90;;;;;;5065321;28;20023;-63
2022/10/04 09:35:35;;;;;;;0.30;0.30;;;18.10;60.00;;;;;;5065035;28;20020;-63
2022/10/04 09:38:19;;;;;;;0.13;0.13;;;18.10;60.00;;;;;;5065238;28;20043;-65
2022/10/04 09:41:22;;;;;;;0.38;0.25;;;18.10;60.00;;;;;;5065200;28;20021;-64
2022/10/04 09:44:32;;;;;;;0.38;0.32;;;18.10;59.90;;;;;;5065136;28;20183;-65
2022/10/04 09:47:30;;;;;;;0.20;0.20;;;18.10;59.90;;;;;;5065061;28;20047;-64
2022/10/04 09:50:25;;;;;;;0.35;0.32;;;18.10;59.90;;;;;;5065066;28;20033;-63
2022/10/04 09:52:56;;;;;;;0.50;0.30;;;18.10;60.00;;;;;;5064944;28;20021;-63
2022/10/04 09:55:34;;;;;;;0.40;0.40;;;18.00;59.90;;;;;;5064868;28;20021;-63
2022/10/04 09:58:04;;;;;;;0.35;0.20;;;18.10;60.00;;;;;;5064937;28;20328;-65
2022/10/04 10:00:34;;;;;;;0.10;0.10;;;18.00;60.00;;;;;;5064860;28;20020;-64
2022/10/04 10:03:17;;;;;;;0.20;0.20;;;18.00;60.00;;;;;;5064786;28;20212;-64
2022/10/04 10:06:10;;;;;;;0.28;0.28;;;18.10;60.00;;;;;;5064734;28;20016;-63
2022/10/04 10:09:06;;;;;;;0.25;0.25;;;18.00;60.00;;;;;;5064680;28;20021;-64
2022/10/04 10:15:03;;;;;;;0.20;0.20;;;18.10;60.00;;;;;;5064532;28;20043;-64
2022/10/04 10:17:59;;;;;;;0.13;0.13;;;18.10;60.00;;;;;;5064486;28;20201;-63
2022/10/04 10:20:59;;;;;;;0.20;0.20;;;18.10;60.00;;;;;;5064336;28;20364;-63
2022/10/04 10:23:29;;;;;;;0.45;0.45;;;18.10;59.90;;;;;;5064225;28;20053;-64
2022/10/04 10:26:16;;;;;;;0.30;0.30;;;18.10;59.80;;;;;;5064319;28;20021;-63
2022/10/04 10:29:17;;;;;;;0.40;0.40;;;18.30;59.60;;;;;;5064298;28;20344;-65
2022/10/04 10:32:09;;;;;;;0.20;0.20;;;18.30;59.40;;;;;;5064171;28;20173;-64
2022/10/04 10:34:53;;;;;;;0.20;0.20;;;18.30;59.50;;;;;;5064090;28;20024;-65
2022/10/04 10:37:43;;;;;;;0.32;0.30;;;18.20;60.20;;;;;;5064142;28;20186;-63
2022/10/04 10:40:39;;;;;;;0.40;0.40;;;18.20;59.60;;;;;;5064056;28;20080;-64
2022/10/04 10:43:45;;;;;;;0.30;0.30;;;18.30;59.70;;;;;;5027049;28;20325;-65
2022/10/04 10:46:26;;;;;;;0.20;0.20;;;18.20;59.70;;;;;;5063332;28;20084;-64
2022/10/04 10:49:24;;;;;;;0.20;0.17;;;18.20;59.80;;;;;;5064159;28;20021;-64
2022/10/04 10:52:33;;;;;;;0.22;0.22;;;18.30;59.80;;;;;;5019921;28;20040;-65
2022/10/04 10:55:10;;;;;;;0.22;0.22;;;18.30;59.90;;;;;;5063732;28;20021;-64
2022/10/04 10:57:51;;;;;;;0.20;0.13;;;18.30;59.80;;;;;;5063757;28;20017;-64
2022/10/04 11:00:21;;;;;;;0.52;0.30;;;18.30;59.80;;;;;;5063716;28;20252;-64
2022/10/04 11:03:06;;;;;;;0.20;0.20;;;18.30;59.70;;;;;;5063884;28;20312;-64
2022/10/04 11:05:38;;;;;;;0.20;0.20;;;18.40;59.60;;;;;;5064003;28;20027;-65
2022/10/04 11:08:35;;;;;;;0.40;0.40;;;18.30;59.80;;;;;;5063931;28;20070;-64
2022/10/04 11:11:20;;;;;;;0.20;0.13;;;18.20;60.00;;;;;;5063899;28;20035;-64
2022/10/04 11:14:00;;;;;;;0.20;0.20;;;18.20;60.10;;;;;;5063818;28;20317;-64
2022/10/04 11:17:00;;;;;;;0.20;0.20;;;18.20;60.20;;;;;;5063703;28;20036;-64
2022/10/04 11:19:56;;;;;;;0.10;0.10;;;18.20;60.20;;;;;;5063724;28;20047;-64
2022/10/04 11:22:54;;;;;;;0.30;0.30;;;18.20;60.20;;;;;;5063474;28;20076;-63
2022/10/04 11:25:35;;;;;;;0.25;0.25;;;18.20;60.30;;;;;;5036531;28;20033;-65
2022/10/04 11:28:23;;;;;;;0.50;0.50;;;18.20;60.20;;;;;;5063608;28;20340;-63
2022/10/04 11:30:57;;;;;;;0.20;0.20;;;18.20;60.10;;;;;;5063570;28;20376;-64
2022/10/04 11:34:11;;;;;;;0.28;0.28;;;18.20;60.20;;;;;;5063525;28;20027;-63
2022/10/04 11:37:00;;;;;;;0.20;0.20;;;18.20;60.10;;;;;;5061330;28;20029;-65
2022/10/04 11:39:45;;;;;;;0.30;0.17;;;18.30;60.00;;;;;;5063496;28;20017;-64
2022/10/04 11:42:25;;;;;;;0.40;0.40;;;18.30;60.00;;;;;;5063391;28;20017;-63
2022/10/04 11:45:12;;;;;;;0.35;0.35;;;18.20;60.10;;;;;;5063357;28;20044;-63
2022/10/04 11:47:41;;;;;;;0.57;0.40;;;18.20;60.10;;;;;;5063379;28;20020;-64
2022/10/04 11:50:31;;;;;;;0.30;0.30;;;18.20;60.10;;;;;;5063326;28;20336;-64
2022/10/04 11:53:26;;;;;;;0.20;0.20;;;18.20;60.20;;;;;;5063328;28;20305;-63
2022/10/04 11:56:32;;;;;;;0.40;0.30;;;18.20;60.30;;;;;;5063241;28;20044;-64
2022/10/04 11:59:04;;;;;;;0.40;0.32;;;18.20;60.20;;;;;;4985740;28;20022;-64
2022/10/04 12:01:45;;;;;;;0.22;0.22;;;18.20;60.10;;;;;;4986659;28;20022;-65
2022/10/04 12:04:23;;;;;;;0.50;0.22;;;18.20;60.10;;;;;;5037328;28;20029;-66
2022/10/04 12:07:02;;;;;;;0.63;0.47;;;18.20;60.10;;;;;;5067332;28;20354;-64
2022/10/04 12:09:36;;;;;;;0.30;0.30;;;18.20;60.00;;;;;;5067260;28;20297;-64
2022/10/04 12:12:36;;;;;;;0.20;0.20;;;18.30;59.80;;;;;;5067230;28;20016;-63
2022/10/04 12:15:23;;;;;;;0.30;0.20;;;18.40;59.70;;;;;;5067102;28;20028;-64
2022/10/04 12:18:11;;;;;;;0.32;0.30;;;18.30;59.90;;;;;;5067120;28;20015;-63
2022/10/04 12:20:58;;;;;;;0.32;0.32;;;18.30;60.00;;;;;;5067115;28;20039;-63
2022/10/04 12:23:38;;;;;;;0.20;0.20;;;18.30;60.20;;;;;;5066860;28;20048;-64
2022/10/04 12:26:37;;;;;;;0.10;0.10;;;18.20;60.10;;;;;;5066983;28;20016;-64
2022/10/04 12:29:58;;;;;;;0.20;0.20;;;18.30;60.10;;;;;;5066901;28;20025;-64
2022/10/04 12:32:24;;;;;;;0.32;0.32;;;18.30;59.90;;;;;;5066841;28;20228;-63
2022/10/04 12:35:17;;;;;;;0.43;0.40;;;18.40;59.80;;;;;;5066697;28;20036;-65
2022/10/04 12:38:09;;;;;;;0.20;0.20;;;18.50;59.60;;;;;;5066758;28;20017;-64
2022/10/04 12:40:53;;;;;;;0.43;0.30;;;18.50;59.50;;;;;;5062441;28;20313;-64
2022/10/04 12:43:29;;;;;;;0.10;0.10;;;18.50;59.60;;;;;;5066625;28;20063;-65
2022/10/04 12:46:12;;;;;;;0.50;0.20;;;18.60;59.50;;;;;;5066567;28;20036;-64
2022/10/04 12:49:02;;;;;;;0.20;0.20;;;18.60;59.30;;;;;;5066556;28;20047;-65
2022/10/04 12:51:41;;;;;;;0.25;0.25;;;18.70;59.10;;;;;;5066470;28;20040;-64
2022/10/04 12:54:41;;;;;;;0.20;0.20;;;18.80;58.80;;;;;;5066435;28;20017;-64
2022/10/04 12:57:29;;;;;;;0.50;0.50;;;19.00;58.50;;;;;;5066373;28;20025;-64
2022/10/04 13:00:02;;;;;;;0.25;0.20;;;18.90;58.40;;;;;;5066320;28;20277;-64
2022/10/04 13:03:01;;;;;;;0.15;0.10;;;18.90;58.70;;;;;;5066561;28;20013;-65
2022/10/04 13:05:40;;;;;;;0.30;0.30;;;19.10;58.30;;;;;;5066235;28;20021;-64
2022/10/04 13:08:46;;;;;;;0.20;0.20;;;19.30;57.70;;;;;;5065633;28;20052;-64
2022/10/04 13:11:33;;;;;;;0.40;0.30;;;19.50;57.10;;;;;;5026794;28;20044;-64
2022/10/04 13:14:30;;;;;;;0.30;0.30;;;19.60;56.80;;;;;;5066064;28;20017;-63
2022/10/04 13:17:02;;;;;;;0.30;0.20;;;19.60;56.80;;;;;;5065369;28;20025;-64
2022/10/04 13:19:57;;;;;;;0.40;0.30;;;19.80;56.40;;;;;;5065971;28;20028;-64
2022/10/04 13:22:35;;;;;;;0.30;0.30;;;20.00;55.70;;;;;;5065284;28;20233;-63
2022/10/04 13:25:01;;;;;;;;;;;20.20;55.30;;;;;;5066279;28;20209;-63
2022/10/04 13:27:45;;;;;;;0.40;0.30;;;20.40;54.80;;;;;;5065804;28;19923;-63
2022/10/04 13:30:31;;;;;;;0.40;0.30;;;20.50;54.50;;;;;;5065715;28;20084;-63
2022/10/04 13:33:14;;;;;;;0.28;0.28;;;20.70;54.20;;;;;;5065705;28;20067;-63
2022/10/04 13:35:40;;;;;;;0.43;0.35;;;20.80;53.70;;;;;;5065576;28;20217;-65
2022/10/04 13:38:08;;;;;;;0.30;0.30;;;20.90;53.60;;;;;;5065599;28;20017;-64
2022/10/04 13:40:58;;;;;;;0.22;0.22;;;20.90;53.50;;;;;;5065582;28;20407;-64
2022/10/04 13:43:51;;;;;;;0.25;0.20;;;21.00;53.40;;;;;;5065592;28;20025;-64
2022/10/04 13:46:39;;;;;;;0.20;0.20;;;21.10;53.20;;;;;;5065502;28;20021;-63
2022/10/04 13:49:47;;;;;;;0.43;0.40;;;21.10;53.20;;;;;;5065433;28;20040;-64
2022/10/04 13:58:40;;;;;;;0.20;0.20;;;21.30;52.80;;;;;;5065278;28;20019;-63
2022/10/04 14:01:30;;;;;;;0.20;0.20;;;21.40;52.70;;;;;;5065209;28;20033;-64
2022/10/04 14:04:30;;;;;;;0.30;0.30;;;21.50;52.60;;;;;;5065149;28;20024;-64
2022/10/04 14:07:17;;;;;;;1.08;0.50;;;21.50;52.40;;;;;;5065115;28;20024;-64
2022/10/04 14:10:03;;;;;;;0.40;0.40;;;21.60;52.20;;;;;;5065060;28;20024;-65